createdAt,value
2019-05-06T00:01:34.112Z,1.17
2019-05-06T00:04:04.639Z,0.80
2019-05-06T00:06:34.643Z,0.80
2019-05-06T00:09:03.983Z,1.30
2019-05-06T00:11:34.416Z,1.33
2019-05-06T00:14:03.979Z,1.30
2019-05-06T00:16:34.689Z,1.20
2019-05-06T00:19:04.868Z,1.10
2019-05-06T00:21:35.596Z,1.50
2019-05-06T00:24:04.061Z,1.50
2019-05-06T00:26:49.036Z,0.70
2019-05-06T00:29:18.991Z,1.60
2019-05-06T00:31:47.390Z,1.17
2019-05-06T00:34:15.718Z,1.63
2019-05-06T00:36:44.191Z,1.80
2019-05-06T00:39:30.652Z,1.40
2019-05-06T00:42:16.530Z,1.40
2019-05-06T00:44:44.897Z,1.33
2019-05-06T00:47:13.582Z,1.60
2019-05-06T00:49:43.598Z,1.90
2019-05-06T00:52:13.629Z,1.27
2019-05-06T00:54:43.649Z,1.20
2019-05-06T00:57:13.894Z,1.40
2019-05-06T00:59:43.744Z,1.40
2019-05-06T01:02:14.019Z,2.13
2019-05-06T01:04:44.496Z,1.57
2019-05-06T01:07:14.004Z,1.23
2019-05-06T01:09:43.882Z,2.23
2019-05-06T01:12:14.224Z,2.53
2019-05-06T01:14:44.026Z,1.13
2019-05-06T01:17:13.458Z,1.57
2019-05-06T01:19:41.757Z,2.00
2019-05-06T01:22:10.057Z,1.60
2019-05-06T01:24:38.343Z,1.57
2019-05-06T01:27:06.924Z,1.50
2019-05-06T01:29:35.219Z,1.50
2019-05-06T01:32:03.744Z,2.07
2019-05-06T01:34:34.006Z,1.33
2019-05-06T01:37:03.668Z,1.87
2019-05-06T01:39:45.718Z,1.60
2019-05-06T01:42:21.653Z,2.10
2019-05-06T01:44:49.972Z,2.20
2019-05-06T01:47:18.262Z,1.90
2019-05-06T01:49:46.550Z,1.73
2019-05-06T01:52:14.939Z,1.83
2019-05-06T01:54:43.721Z,1.90
2019-05-06T01:57:13.742Z,1.73
2019-05-06T01:59:44.203Z,1.83
2019-05-06T02:02:14.143Z,2.07
2019-05-06T02:04:44.236Z,2.40
2019-05-06T02:07:14.313Z,1.77
2019-05-06T02:09:44.604Z,1.20
2019-05-06T02:12:13.762Z,1.37
2019-05-06T02:14:43.635Z,1.60
2019-05-06T02:17:14.234Z,2.00
2019-05-06T02:19:43.813Z,1.70
2019-05-06T02:22:13.976Z,1.80
2019-05-06T02:24:44.055Z,1.50
2019-05-06T02:27:13.956Z,1.80
2019-05-06T02:29:47.352Z,1.70
2019-05-06T02:32:26.995Z,2.13
2019-05-06T02:34:55.015Z,1.93
2019-05-06T02:37:27.968Z,1.87
2019-05-06T02:39:56.265Z,1.83
2019-05-06T02:42:24.604Z,1.73
2019-05-06T02:44:53.947Z,1.93
2019-05-06T02:47:30.225Z,1.27
2019-05-06T02:50:04.130Z,1.13
2019-05-06T02:52:32.923Z,0.90
2019-05-06T02:55:00.880Z,1.50
2019-05-06T02:57:29.271Z,1.90
2019-05-06T02:59:57.577Z,1.00
2019-05-06T03:02:37.916Z,1.30
2019-05-06T03:04:56.150Z,1.10
2019-05-06T03:07:24.472Z,1.00
2019-05-06T03:09:53.394Z,1.90
2019-05-06T03:12:22.864Z,1.30
2019-05-06T03:14:53.326Z,2.00
2019-05-06T03:17:23.445Z,0.97
2019-05-06T03:19:53.144Z,1.70
2019-05-06T03:22:27.753Z,1.50
2019-05-06T03:24:57.581Z,1.43
2019-05-06T03:27:25.850Z,1.57
2019-05-06T03:29:54.165Z,1.90
2019-05-06T03:32:30.220Z,1.53
2019-05-06T03:35:15.769Z,1.20
2019-05-06T03:37:24.029Z,1.50
2019-05-06T03:39:53.014Z,1.40
2019-05-06T03:42:22.956Z,1.13
2019-05-06T03:44:53.600Z,1.53
2019-05-06T03:47:26.495Z,1.13
2019-05-06T03:49:55.063Z,1.53
2019-05-06T03:52:23.975Z,1.30
2019-05-06T03:54:53.641Z,1.67
2019-05-06T03:57:23.342Z,1.30
2019-05-06T03:59:52.879Z,1.30
2019-05-06T04:02:24.125Z,1.50
2019-05-06T04:04:55.705Z,1.77
2019-05-06T04:07:23.453Z,2.10
2019-05-06T04:09:53.645Z,1.13
2019-05-06T04:12:23.525Z,1.40
2019-05-06T04:14:53.894Z,0.97
2019-05-06T04:17:27.610Z,2.10
2019-05-06T04:19:57.563Z,1.10
2019-05-06T04:22:33.525Z,1.60
2019-05-06T04:25:04.192Z,1.93
2019-05-06T04:27:42.988Z,1.50
2019-05-06T04:30:14.618Z,1.37
2019-05-06T04:32:43.637Z,1.40
2019-05-06T04:35:13.754Z,1.00
2019-05-06T04:37:43.031Z,1.40
2019-05-06T04:40:12.935Z,1.17
2019-05-06T04:42:44.388Z,1.50
2019-05-06T04:45:13.486Z,1.40
2019-05-06T04:47:45.264Z,0.70
2019-05-06T04:50:13.568Z,1.53
2019-05-06T04:52:43.274Z,0.90
2019-05-06T04:55:14.005Z,1.73
2019-05-06T04:57:43.974Z,1.37
2019-05-06T05:00:13.419Z,1.70
2019-05-06T05:02:46.627Z,1.80
2019-05-06T05:05:14.996Z,2.00
2019-05-06T05:07:43.294Z,1.67
2019-05-06T05:10:16.035Z,1.23
2019-05-06T05:12:48.790Z,1.70
2019-05-06T05:15:24.667Z,1.90
2019-05-06T05:18:03.360Z,1.57
2019-05-06T05:20:37.667Z,1.23
2019-05-06T05:23:06.549Z,1.40
2019-05-06T05:25:34.833Z,1.30
2019-05-06T05:28:03.182Z,1.20
2019-05-06T05:30:32.833Z,1.60
2019-05-06T05:33:02.582Z,1.50
2019-05-06T05:35:32.168Z,1.23
2019-05-06T05:38:00.675Z,1.30
2019-05-06T05:40:29.440Z,1.53
2019-05-06T05:43:02.901Z,1.47
2019-05-06T05:45:32.740Z,1.20
2019-05-06T05:48:02.916Z,1.40
2019-05-06T05:50:36.046Z,1.40
2019-05-06T05:53:04.454Z,1.40
2019-05-06T05:55:33.087Z,1.23
2019-05-06T05:58:03.193Z,1.03
2019-05-06T06:00:34.486Z,1.33
2019-05-06T06:03:03.017Z,0.83
2019-05-06T06:05:32.950Z,1.13
2019-05-06T06:08:02.890Z,1.10
2019-05-06T06:10:33.293Z,1.10
2019-05-06T06:13:02.185Z,1.53
2019-05-06T06:15:38.731Z,1.37
2019-05-06T06:18:25.155Z,1.30
2019-05-06T06:21:17.641Z,1.93
2019-05-06T06:23:52.861Z,1.97
2019-05-06T06:26:22.704Z,1.07
2019-05-06T06:28:52.298Z,1.57
2019-05-06T06:31:25.526Z,1.23
2019-05-06T06:33:55.464Z,1.40
2019-05-06T06:36:27.974Z,1.40
2019-05-06T06:39:02.109Z,0.97
2019-05-06T06:41:32.326Z,1.57
2019-05-06T06:44:05.435Z,1.33
2019-05-06T06:46:33.810Z,1.50
2019-05-06T06:49:03.299Z,1.10
2019-05-06T06:51:33.088Z,1.00
2019-05-06T06:54:02.478Z,0.90
2019-05-06T06:56:33.010Z,1.40
2019-05-06T06:59:22.184Z,1.13
2019-05-06T07:01:52.940Z,1.37
2019-05-06T07:04:23.212Z,1.00
2019-05-06T07:06:56.613Z,1.37
2019-05-06T07:09:24.920Z,1.67
2019-05-06T07:11:53.239Z,1.33
2019-05-06T07:14:22.638Z,1.60
2019-05-06T07:16:53.203Z,1.30
2019-05-06T07:19:23.003Z,0.97
2019-05-06T07:21:55.389Z,1.10
2019-05-06T07:24:23.668Z,1.57
2019-05-06T07:26:53.748Z,1.50
2019-05-06T07:29:26.041Z,1.00
2019-05-06T07:31:53.439Z,1.40
2019-05-06T07:34:22.922Z,1.37
2019-05-06T07:36:52.546Z,1.30
2019-05-06T07:39:23.773Z,1.50
2019-05-06T07:41:58.875Z,1.30
2019-05-06T07:44:46.841Z,1.73
2019-05-06T07:47:23.950Z,0.90
2019-05-06T07:49:53.110Z,1.43
2019-05-06T07:52:23.104Z,0.87
2019-05-06T07:54:53.397Z,1.20
2019-05-06T07:57:22.108Z,0.80
2019-05-06T07:59:52.494Z,0.93
2019-05-06T08:02:22.787Z,0.97
2019-05-06T08:04:52.952Z,0.93
2019-05-06T08:07:22.287Z,0.70
2019-05-06T08:09:52.837Z,0.80
2019-05-06T08:12:22.317Z,0.93
2019-05-06T08:14:52.332Z,1.20
2019-05-06T08:17:22.728Z,0.90
2019-05-06T08:19:52.929Z,0.50
2019-05-06T08:22:38.758Z,1.17
2019-05-06T08:25:07.068Z,1.00
2019-05-06T08:27:35.450Z,1.30
2019-05-06T08:30:06.163Z,0.93
2019-05-06T08:32:34.464Z,0.70
2019-05-06T08:35:03.421Z,1.20
2019-05-06T08:37:33.476Z,0.70
2019-05-06T08:40:03.318Z,0.80
2019-05-06T08:42:32.888Z,0.97
2019-05-06T08:45:02.198Z,1.10
2019-05-06T08:47:32.844Z,1.00
2019-05-06T08:50:18.742Z,0.80
2019-05-06T08:52:57.437Z,1.30
2019-05-06T08:55:27.489Z,1.20
2019-05-06T08:57:55.788Z,1.20
2019-05-06T09:00:24.128Z,1.37
2019-05-06T09:02:53.053Z,1.50
2019-05-06T09:05:22.353Z,1.23
2019-05-06T09:07:52.355Z,1.03
2019-05-06T09:10:22.713Z,1.13
2019-05-06T09:12:52.542Z,1.53
2019-05-06T09:15:21.971Z,1.43
2019-05-06T09:17:52.485Z,0.53
2019-05-06T09:20:20.589Z,0.60
2019-05-06T09:22:48.889Z,1.13
2019-05-06T09:25:17.179Z,0.67
2019-05-06T09:27:49.590Z,0.57
2019-05-06T09:30:35.435Z,0.60
2019-05-06T09:33:03.826Z,0.57
2019-05-06T09:35:32.900Z,1.03
2019-05-06T09:38:02.168Z,0.93
2019-05-06T09:40:31.889Z,1.03
2019-05-06T09:43:04.458Z,0.90
2019-05-06T09:45:30.390Z,0.83
2019-05-06T09:48:06.069Z,0.87
2019-05-06T09:50:45.985Z,0.67
2019-05-06T09:53:23.419Z,0.80
2019-05-06T09:56:05.563Z,0.90
2019-05-06T09:58:38.221Z,0.63
2019-05-06T10:01:06.674Z,0.80
2019-05-06T10:03:35.038Z,0.97
2019-05-06T10:06:03.388Z,0.60
2019-05-06T10:08:32.417Z,0.57
2019-05-06T10:11:02.899Z,0.67
2019-05-06T10:13:32.931Z,1.20
2019-05-06T10:16:03.015Z,0.80
2019-05-06T10:18:31.360Z,0.80
2019-05-06T10:20:59.698Z,1.00
2019-05-06T10:23:28.079Z,0.70
2019-05-06T10:25:56.392Z,1.13
2019-05-06T10:28:41.382Z,0.77
2019-05-06T10:31:12.763Z,0.63
2019-05-06T10:33:45.647Z,0.60
2019-05-06T10:36:14.799Z,0.87
2019-05-06T10:38:55.220Z,1.30
2019-05-06T10:41:32.852Z,0.67
2019-05-06T10:44:34.820Z,0.80
2019-05-06T10:47:03.668Z,0.87
2019-05-06T10:49:33.704Z,1.13
2019-05-06T10:52:03.827Z,0.90
2019-05-06T10:54:32.110Z,0.93
2019-05-06T10:57:02.359Z,0.90
2019-05-06T10:59:32.470Z,0.77
2019-05-06T11:02:05.324Z,0.97
2019-05-06T11:04:33.112Z,0.73
2019-05-06T11:07:03.839Z,1.10
2019-05-06T11:09:33.283Z,0.90
2019-05-06T11:12:03.259Z,0.97
2019-05-06T11:14:33.499Z,1.13
2019-05-06T11:17:04.837Z,1.03
2019-05-06T11:19:33.189Z,0.90
2019-05-06T11:22:03.612Z,0.60
2019-05-06T11:24:32.675Z,0.50
2019-05-06T11:27:03.494Z,0.50
2019-05-06T11:29:39.313Z,0.70
2019-05-06T11:32:21.179Z,0.70
2019-05-06T11:34:52.465Z,0.70
2019-05-06T11:37:47.148Z,0.80
2019-05-06T11:40:08.671Z,0.70
2019-05-06T11:42:36.957Z,1.00
2019-05-06T11:45:07.516Z,1.20
2019-05-06T11:47:35.847Z,1.77
2019-05-06T11:50:06.543Z,0.93
2019-05-06T11:52:34.871Z,0.77
2019-05-06T11:55:03.636Z,0.80
2019-05-06T11:57:32.620Z,1.63
2019-05-06T12:00:03.098Z,1.60
2019-05-06T12:02:33.045Z,1.50
2019-05-06T12:05:04.541Z,0.70
2019-05-06T12:07:34.864Z,0.83
2019-05-06T12:10:03.243Z,2.30
2019-05-06T12:12:31.545Z,1.10
2019-05-06T12:14:59.884Z,0.90
2019-05-06T12:17:28.178Z,1.07
2019-05-06T12:19:56.556Z,1.40
2019-05-06T12:22:26.529Z,1.00
2019-05-06T12:24:54.901Z,1.53
2019-05-06T12:27:43.083Z,1.03
2019-05-06T12:30:12.345Z,1.50
2019-05-06T12:32:43.386Z,0.80
2019-05-06T12:35:12.545Z,1.80
2019-05-06T12:37:43.997Z,1.30
2019-05-06T12:40:12.574Z,1.47
2019-05-06T12:42:43.171Z,1.50
2019-05-06T12:45:29.088Z,1.77
2019-05-06T12:47:59.064Z,1.90
2019-05-06T12:50:27.691Z,1.57
2019-05-06T12:52:57.840Z,1.40
2019-05-06T12:55:26.554Z,1.90
2019-05-06T12:57:55.091Z,2.00
2019-05-06T13:00:24.347Z,1.50
2019-05-06T13:02:53.243Z,2.00
2019-05-06T13:05:21.733Z,1.37
2019-05-06T13:07:50.136Z,2.00
2019-05-06T13:10:20.083Z,2.00
2019-05-06T13:12:53.879Z,1.87
2019-05-06T13:15:24.138Z,1.20
2019-05-06T13:17:53.122Z,1.70
2019-05-06T13:20:22.859Z,2.07
2019-05-06T13:22:53.638Z,0.90
2019-05-06T13:25:23.361Z,0.80
2019-05-06T13:27:52.775Z,0.70
2019-05-06T13:30:22.689Z,0.80
2019-05-06T13:33:07.879Z,0.80
2019-05-06T13:35:36.412Z,0.80
2019-05-06T13:38:04.709Z,0.70
2019-05-06T13:40:35.174Z,1.20
2019-05-06T13:43:13.679Z,0.60
2019-05-06T13:45:46.082Z,0.70
2019-05-06T13:48:22.935Z,1.57
2019-05-06T13:51:12.425Z,1.07
2019-05-06T13:53:45.694Z,0.70
2019-05-06T13:56:12.067Z,1.20
2019-05-06T13:58:43.016Z,0.93
2019-05-06T14:01:13.384Z,0.87
2019-05-06T14:03:42.975Z,1.20
2019-05-06T14:06:12.283Z,1.20
2019-05-06T14:08:42.312Z,1.13
2019-05-06T14:11:13.095Z,1.60
2019-05-06T14:13:42.167Z,1.57
2019-05-06T14:16:13.029Z,1.43
2019-05-06T14:18:42.773Z,1.87
2019-05-06T14:21:12.439Z,2.50
2019-05-06T14:23:40.944Z,1.93
2019-05-06T14:26:13.699Z,1.50
2019-05-06T14:28:46.564Z,1.50
2019-05-06T14:31:19.000Z,1.63
2019-05-06T14:33:57.961Z,3.10
2019-05-06T14:36:27.639Z,2.07
2019-05-06T14:38:56.358Z,2.10
2019-05-06T14:41:27.395Z,3.40
2019-05-06T14:43:55.862Z,2.13
2019-05-06T14:46:24.200Z,2.03
2019-05-06T14:48:53.393Z,1.60
2019-05-06T14:51:22.350Z,1.90
2019-05-06T14:53:52.949Z,1.93
2019-05-06T14:56:34.126Z,2.30
2019-05-06T14:59:06.294Z,1.53
2019-05-06T15:01:35.017Z,2.40
2019-05-06T15:04:03.767Z,2.77
2019-05-06T15:06:33.105Z,2.57
2019-05-06T15:09:03.752Z,2.23
2019-05-06T15:11:32.464Z,1.87
2019-05-06T15:14:03.576Z,1.50
2019-05-06T15:16:33.750Z,1.40
2019-05-06T15:19:04.298Z,1.60
2019-05-06T15:21:37.915Z,1.70
2019-05-06T15:24:02.911Z,1.10
2019-05-06T15:26:33.227Z,1.93
2019-05-06T15:29:03.340Z,1.40
2019-05-06T15:31:42.172Z,1.20
2019-05-06T15:34:14.685Z,1.70
2019-05-06T15:37:02.386Z,1.10
2019-05-06T15:39:32.341Z,1.57
2019-05-06T15:42:00.307Z,1.63
2019-05-06T15:44:31.673Z,2.30
2019-05-06T15:46:58.737Z,1.50
2019-05-06T15:49:27.018Z,2.10
2019-05-06T15:51:55.318Z,1.47
2019-05-06T15:54:23.618Z,1.83
2019-05-06T15:56:53.231Z,1.30
2019-05-06T15:59:22.930Z,1.60
2019-05-06T16:01:53.152Z,1.90
2019-05-06T16:04:22.968Z,2.10
2019-05-06T16:06:52.864Z,1.50
2019-05-06T16:09:23.386Z,2.10
2019-05-06T16:11:53.464Z,1.97
2019-05-06T16:14:22.946Z,1.70
2019-05-06T16:16:52.725Z,2.00
2019-05-06T16:19:22.799Z,1.40
2019-05-06T16:21:52.407Z,2.17
2019-05-06T16:24:35.305Z,2.00
2019-05-06T16:27:04.538Z,1.50
2019-05-06T16:29:36.597Z,1.27
2019-05-06T16:32:06.124Z,1.97
2019-05-06T16:34:34.535Z,1.60
2019-05-06T16:37:02.813Z,1.20
2019-05-06T16:39:33.015Z,1.40
2019-05-06T16:42:03.622Z,1.30
2019-05-06T16:44:31.172Z,1.70
2019-05-06T16:46:59.519Z,1.00
2019-05-06T16:49:27.806Z,0.83
2019-05-06T16:51:56.157Z,1.57
2019-05-06T16:54:25.049Z,1.67
2019-05-06T16:57:02.298Z,1.53
2019-05-06T16:59:33.426Z,1.17
2019-05-06T17:02:02.848Z,1.23
2019-05-06T17:04:33.619Z,1.57
2019-05-06T17:07:04.938Z,1.40
2019-05-06T17:09:33.359Z,1.37
2019-05-06T17:12:02.823Z,1.07
2019-05-06T17:14:32.501Z,1.03
2019-05-06T17:17:03.080Z,1.03
2019-05-06T17:19:32.395Z,0.80
2019-05-06T17:22:03.030Z,1.50
2019-05-06T17:24:33.027Z,2.10
2019-05-06T17:27:02.727Z,1.70
2019-05-06T17:29:42.798Z,1.70
2019-05-06T17:32:16.075Z,1.70
2019-05-06T17:34:46.780Z,1.77
2019-05-06T17:37:25.730Z,1.70
2019-05-06T17:40:06.946Z,1.13
2019-05-06T17:42:24.038Z,1.33
2019-05-06T17:44:53.371Z,1.90
2019-05-06T17:47:32.101Z,1.20
2019-05-06T17:50:02.836Z,1.10
2019-05-06T17:52:33.389Z,1.20
2019-05-06T17:55:02.919Z,1.27
2019-05-06T17:57:33.123Z,0.90
2019-05-06T18:00:03.292Z,1.00
2019-05-06T18:02:32.612Z,1.90
2019-05-06T18:05:02.870Z,2.27
2019-05-06T18:07:32.671Z,1.30
2019-05-06T18:10:03.045Z,1.57
2019-05-06T18:12:33.170Z,1.90
2019-05-06T18:15:02.720Z,1.40
2019-05-06T18:17:33.191Z,1.70
2019-05-06T18:20:02.947Z,2.73
2019-05-06T18:22:32.924Z,1.13
2019-05-06T18:25:02.277Z,1.93
2019-05-06T18:27:32.258Z,1.87
2019-05-06T18:30:13.384Z,1.83
2019-05-06T18:32:33.271Z,1.93
2019-05-06T18:35:02.644Z,2.27
2019-05-06T18:37:33.170Z,2.07
2019-05-06T18:40:01.402Z,1.97
2019-05-06T18:42:29.706Z,2.23
2019-05-06T18:44:58.735Z,1.40
2019-05-06T18:47:27.189Z,1.93
2019-05-06T18:49:56.533Z,1.70
2019-05-06T18:52:25.765Z,2.50
2019-05-06T18:54:54.141Z,1.60
2019-05-06T18:57:22.754Z,1.70
2019-05-06T18:59:53.318Z,2.20
2019-05-06T19:02:22.921Z,2.40
2019-05-06T19:04:53.061Z,1.97
2019-05-06T19:07:24.401Z,2.00
2019-05-06T19:10:03.172Z,2.33
2019-05-06T19:12:39.883Z,2.67
2019-05-06T19:15:03.307Z,2.43
2019-05-06T19:17:33.594Z,2.63
2019-05-06T19:20:02.668Z,2.77
2019-05-06T19:22:32.483Z,2.10
2019-05-06T19:25:02.643Z,1.63
2019-05-06T19:27:32.771Z,3.40
2019-05-06T19:30:02.466Z,2.90
2019-05-06T19:32:34.906Z,3.40
2019-05-06T19:35:02.739Z,2.90
2019-05-06T19:37:32.837Z,2.70
2019-05-06T19:40:02.948Z,3.27
2019-05-06T19:42:43.723Z,3.00
2019-05-06T19:45:02.474Z,2.30
2019-05-06T19:47:31.931Z,2.37
2019-05-06T19:50:02.673Z,2.17
2019-05-06T19:52:32.601Z,2.50
2019-05-06T19:55:02.939Z,3.00
2019-05-06T19:57:32.378Z,2.57
2019-05-06T20:00:03.115Z,1.90
2019-05-06T20:02:31.998Z,2.53
2019-05-06T20:05:03.128Z,3.47
2019-05-06T20:07:43.013Z,2.37
2019-05-06T20:10:22.989Z,2.43
2019-05-06T20:13:02.744Z,2.37
2019-05-06T20:15:33.820Z,2.40
2019-05-06T20:18:03.130Z,1.87
2019-05-06T20:20:34.720Z,2.70
2019-05-06T20:23:02.685Z,4.00
2019-05-06T20:25:31.221Z,3.13
2019-05-06T20:27:59.621Z,4.20
2019-05-06T20:30:27.968Z,4.10
2019-05-06T20:32:56.394Z,3.80
2019-05-06T20:35:24.690Z,3.47
2019-05-06T20:37:53.504Z,3.27
2019-05-06T20:40:22.947Z,3.10
2019-05-06T20:42:51.669Z,2.17
2019-05-06T20:45:22.168Z,2.13
2019-05-06T20:47:52.321Z,2.30
2019-05-06T20:50:22.574Z,1.77
2019-05-06T20:52:51.974Z,2.37
2019-05-06T20:55:22.866Z,2.30
2019-05-06T20:57:52.917Z,1.03
2019-05-06T21:00:24.250Z,2.30
2019-05-06T21:02:54.656Z,1.33
2019-05-06T21:05:23.611Z,1.90
2019-05-06T21:07:53.627Z,2.13
2019-05-06T21:10:23.188Z,2.70
2019-05-06T21:12:53.508Z,1.87
2019-05-06T21:15:23.338Z,1.63
2019-05-06T21:17:52.964Z,2.20
2019-05-06T21:20:22.827Z,1.40
2019-05-06T21:22:53.304Z,1.43
2019-05-06T21:25:22.606Z,1.90
2019-05-06T21:27:53.142Z,1.27
2019-05-06T21:30:21.206Z,1.57
2019-05-06T21:32:51.927Z,0.90
2019-05-06T21:35:22.081Z,0.83
2019-05-06T21:37:49.764Z,1.13
2019-05-06T21:40:18.075Z,1.17
2019-05-06T21:42:46.414Z,1.00
2019-05-06T21:45:14.871Z,1.80
2019-05-06T21:47:46.266Z,1.10
2019-05-06T21:50:14.057Z,1.47
2019-05-06T21:52:43.113Z,1.03
2019-05-06T21:55:13.103Z,1.00
2019-05-06T21:57:42.411Z,0.70
2019-05-06T22:00:13.882Z,0.80
2019-05-06T22:02:42.653Z,0.80
2019-05-06T22:05:13.107Z,1.53
2019-05-06T22:07:43.390Z,1.03
2019-05-06T22:10:11.347Z,1.00
2019-05-06T22:12:39.712Z,1.20
2019-05-06T22:15:08.091Z,0.60
2019-05-06T22:17:36.405Z,0.67
2019-05-06T22:20:05.160Z,0.60
2019-05-06T22:22:42.643Z,1.07
2019-05-06T22:25:12.543Z,0.83
2019-05-06T22:27:44.264Z,1.07
2019-05-06T22:30:11.531Z,0.70
2019-05-06T22:32:45.932Z,1.00
2019-05-06T22:35:16.183Z,0.67
2019-05-06T22:37:45.058Z,0.90
2019-05-06T22:40:13.619Z,0.80
2019-05-06T22:42:43.096Z,1.73
2019-05-06T22:45:12.579Z,1.20
2019-05-06T22:47:42.086Z,1.63
2019-05-06T22:50:12.880Z,0.80
2019-05-06T22:52:42.051Z,1.03
2019-05-06T22:55:13.002Z,2.17
2019-05-06T22:57:42.265Z,1.10
2019-05-06T23:00:15.022Z,0.87
2019-05-06T23:02:52.821Z,0.60
2019-05-06T23:05:23.122Z,0.67
2019-05-06T23:07:53.259Z,0.70
2019-05-06T23:10:24.517Z,0.50
2019-05-06T23:12:52.311Z,0.60
2019-05-06T23:15:20.853Z,0.80
2019-05-06T23:17:49.129Z,1.13
2019-05-06T23:20:17.427Z,0.87
2019-05-06T23:22:45.735Z,2.40
2019-05-06T23:25:14.012Z,1.33
2019-05-06T23:27:44.142Z,0.80
2019-05-06T23:30:13.001Z,0.83
2019-05-06T23:32:42.282Z,1.17
2019-05-06T23:35:12.805Z,1.07
2019-05-06T23:38:17.301Z,1.23
2019-05-06T23:41:22.087Z,1.33
2019-05-06T23:44:27.039Z,0.73
2019-05-06T23:47:32.000Z,0.53
2019-05-06T23:50:37.161Z,0.50
2019-05-06T23:53:42.093Z,0.53
2019-05-06T23:56:46.945Z,1.03
2019-05-06T23:59:17.996Z,0.60
